Main page
METAR-TAF:

METAR-TAF

Airports :

Birmingham Airport

Birmingham, England

latitude: 52-27N, longitude: 001-44W, elevation: 99 m

Current weather observation

The report was made 22 minutes ago, at 10:20 UTC
Wind 5 kt from the North, varying between West/Northwest and East/Northeast
Temperature 19°C
Humidity 49%
Pressure 1026 hPa
Visibility 10 km or more
no clouds below 1500 m and no cumulonimbus

METAR: EGBB 241020Z 01005KT 300V070 CAVOK 19/08 Q1026

Time: 11:42 (10:42 UTC)

Forecast

The report was made 5 hours and 42 minutes ago, at 05:00 UTC
Forecast valid from 24 at 06 UTC to 25 at 06 UTC
Wind 4 kt from the North/Northwest
Visibility 10 km or more
no clouds below 1500 m and no cumulonimbus

TAF: EGBB 240500Z 2406/2506 33004KT CAVOK

Weather observations and forecasts of more than 4000 airports (METAR and TAF reports).

The available stations are represented by yellow and red dots on the map.

Hover mouse over dot to see the name of the station.

Then click to see weather observations and forecasts.

To change the map : click on the green buttons with a black cross to zoom in, on the green button with a dash to zoom out, or on the green arrows for adjacent maps.


METAR-TAF: